Ravendale, California
Current Conditions -  °F | °C
As of 12:55 AM on Friday 19 Dec 2014 (Local Time) from KAAT Reporting Station
Overcast Overcast  
Wind Chill: 37°   Ceiling: 4900
Heat Index: 37°   Visibility: 10mi
Dew Point: 33°   Wind: 0mph
Humidity: 86%   Direction: NA
Pressure: 30.04"   Gusts: NA
Location:  40.8°N, 120.37°W
Report Text: KAAT 190855Z AUTO 00000KT 10SM FEW021 BKN049 OVC065 03/01 A3004 RMK AO2 RAB15E47 SLP173 P0001 60001 T00280006 58006
Loading
Personal Weather Stations






























Interactive Weather Map New forecast layout! Learn more

10-Day Weather Forecast

Advertisements
Track Severe Weather on mobile